Terminal Aerodrome Forecast
Issued by NWS Wakefield, VA

Home | Current Version | Previous Version | Text Only | Print | Product List | Glossary On
Versions: 1 2 3 4 5 6 7 8 9 10 11 12 13 14 15 16 17
000
FTUS41 KAKQ 201729
TAFORF
TAF
KORF 201729Z 2018/2118 15006KT P6SM -RA SCT025 BKN050 OVC100
      TEMPO 2018/2022 4SM -RA BR OVC025
     FM202300 09004KT P6SM OVC030
     FM210200 00000KT 5SM BR BKN040
     FM210900 00000KT 1SM -DZ BR OVC025
     FM211200 00000KT 2SM -DZ BR OVC015
     FM211500 VRB03KT P6SM BKN030=

USA.gov is the U.S. government's official web portal to all federal, state and local government web resources and services.